createdAt,value
2024-04-08T00:03:17.627Z,100.00
2024-04-08T00:07:02.231Z,100.00
2024-04-08T00:10:46.771Z,100.00
2024-04-08T00:14:37.463Z,100.00
2024-04-08T00:18:14.706Z,100.00
2024-04-08T00:22:12.677Z,100.00
2024-04-08T00:26:01.832Z,100.00
2024-04-08T00:29:43.106Z,100.00
2024-04-08T00:33:37.891Z,100.00
2024-04-08T00:37:17.873Z,100.00
2024-04-08T00:41:06.166Z,100.00
2024-04-08T00:44:46.437Z,100.00
2024-04-08T00:48:36.144Z,100.00
2024-04-08T00:52:23.857Z,100.00
2024-04-08T00:56:14.709Z,100.00
2024-04-08T00:59:56.753Z,100.00
2024-04-08T01:03:47.605Z,100.00
2024-04-08T01:07:32.828Z,100.00
2024-04-08T01:11:23.608Z,100.00
2024-04-08T01:14:51.224Z,100.00
2024-04-08T01:18:39.404Z,100.00
2024-04-08T01:22:28.478Z,100.00
2024-04-08T01:26:07.250Z,100.00
2024-04-08T01:29:55.635Z,100.00
2024-04-08T01:33:44.426Z,100.00
2024-04-08T01:37:36.049Z,100.00
2024-04-08T01:41:18.113Z,100.00
2024-04-08T01:44:57.415Z,100.00
2024-04-08T01:48:35.575Z,100.00
2024-04-08T01:52:05.549Z,100.00
2024-04-08T01:55:41.082Z,100.00
2024-04-08T01:59:24.878Z,100.00
2024-04-08T02:03:13.832Z,100.00
2024-04-08T02:06:45.117Z,100.00
2024-04-08T02:10:05.382Z,100.00
2024-04-08T02:13:38.604Z,100.00
2024-04-08T02:17:08.351Z,100.00
2024-04-08T02:20:57.138Z,100.00
2024-04-08T02:24:39.037Z,100.00
2024-04-08T02:28:28.258Z,100.00
2024-04-08T02:32:17.324Z,100.00
2024-04-08T02:35:59.642Z,100.00
2024-04-08T02:39:40.063Z,100.00
2024-04-08T02:43:29.141Z,100.00
2024-04-08T02:47:11.132Z,100.00
2024-04-08T02:55:36.391Z,100.00
2024-04-08T03:13:04.234Z,100.00
2024-04-08T03:16:49.566Z,100.00
2024-04-08T03:20:11.741Z,100.00
2024-04-08T03:23:42.566Z,100.00
2024-04-08T03:27:35.078Z,100.00
2024-04-08T03:31:24.415Z,100.00
2024-04-08T03:34:58.236Z,100.00
2024-04-08T03:38:47.034Z,100.00
2024-04-08T03:42:35.760Z,100.00
2024-04-08T03:46:24.725Z,100.00
2024-04-08T03:49:51.140Z,100.00
2024-04-08T03:53:21.893Z,100.00
2024-04-08T03:57:05.927Z,100.00
2024-04-08T04:00:56.173Z,100.00
2024-04-08T04:04:44.651Z,100.00
2024-04-08T04:08:51.730Z,100.00
2024-04-08T04:12:40.946Z,100.00
2024-04-08T04:16:29.774Z,100.00
2024-04-08T04:20:11.701Z,100.00
2024-04-08T04:23:55.702Z,100.00
2024-04-08T04:27:43.526Z,100.00
2024-04-08T04:31:17.254Z,100.00
2024-04-08T04:34:55.583Z,100.00
2024-04-08T04:38:16.313Z,100.00
2024-04-08T04:42:04.274Z,100.00
2024-04-08T04:46:01.517Z,100.00
2024-04-08T04:49:43.398Z,100.00
2024-04-08T04:53:28.828Z,100.00
2024-04-08T05:01:37.787Z,100.00
2024-04-08T05:05:27.647Z,100.00
2024-04-08T05:09:09.746Z,100.00
2024-04-08T05:12:37.582Z,100.00
2024-04-08T05:16:35.386Z,100.00
2024-04-08T05:20:24.251Z,100.00
2024-04-08T05:24:11.881Z,100.00
2024-04-08T05:28:01.152Z,100.00
2024-04-08T05:31:50.010Z,100.00
2024-04-08T05:35:39.047Z,100.00
2024-04-08T05:39:28.296Z,100.00
2024-04-08T05:43:12.225Z,100.00
2024-04-08T05:47:01.084Z,100.00
2024-04-08T05:50:06.598Z,100.00
2024-04-08T05:53:55.584Z,100.00
2024-04-08T05:57:44.864Z,100.00
2024-04-08T06:01:23.143Z,99.58
2024-04-08T06:04:58.137Z,97.91
2024-04-08T06:08:40.021Z,97.41
2024-04-08T06:12:42.164Z,96.80
2024-04-08T06:16:29.990Z,95.69
2024-04-08T06:19:53.857Z,94.90
2024-04-08T06:23:20.885Z,92.74
2024-04-08T06:27:02.888Z,91.41
2024-04-08T06:30:38.508Z,89.45
2024-04-08T06:34:19.166Z,87.52
2024-04-08T06:38:08.069Z,86.19
2024-04-08T06:41:57.495Z,85.02
2024-04-08T06:45:32.400Z,83.08
2024-04-08T06:49:07.641Z,80.71
2024-04-08T06:52:34.154Z,78.81
2024-04-08T06:55:31.721Z,75.45
2024-04-08T06:59:02.918Z,73.12
2024-04-08T07:02:21.761Z,71.38
2024-04-08T07:05:17.789Z,69.71
2024-04-08T07:08:26.447Z,68.24
2024-04-08T07:11:52.758Z,66.55
2024-04-08T07:15:00.857Z,64.56
2024-04-08T07:18:33.533Z,63.38
2024-04-08T07:22:06.427Z,61.73
2024-04-08T07:25:38.699Z,60.56
2024-04-08T07:29:06.197Z,59.55
2024-04-08T07:32:55.486Z,58.46
2024-04-08T07:36:31.399Z,57.20
2024-04-08T07:40:20.339Z,56.48
2024-04-08T07:44:02.342Z,55.09
2024-04-08T07:47:55.146Z,54.75
2024-04-08T07:51:30.782Z,54.44
2024-04-08T07:54:49.066Z,53.61
2024-04-08T07:58:32.783Z,52.38
2024-04-08T08:02:14.600Z,51.21
2024-04-08T08:05:03.062Z,50.69
2024-04-08T08:08:30.226Z,50.55
2024-04-08T08:12:11.883Z,49.42
2024-04-08T08:16:07.125Z,48.63
2024-04-08T08:19:12.547Z,47.71
2024-04-08T08:22:14.617Z,47.63
2024-04-08T08:26:02.451Z,47.48
2024-04-08T08:29:28.653Z,46.88
2024-04-08T08:32:53.321Z,45.78
2024-04-08T08:35:38.133Z,45.58
2024-04-08T08:39:03.456Z,45.45
2024-04-08T08:42:23.773Z,44.32
2024-04-08T08:46:17.185Z,44.51
2024-04-08T08:49:59.856Z,43.71
2024-04-08T08:53:45.476Z,42.22
2024-04-08T08:57:05.326Z,42.02
2024-04-08T09:00:03.880Z,41.90
2024-04-08T09:03:55.682Z,40.46
2024-04-08T09:07:03.651Z,40.35
2024-04-08T09:10:30.568Z,40.29
2024-04-08T09:13:41.994Z,39.95
2024-04-08T09:16:49.865Z,39.98
2024-04-08T09:19:55.082Z,39.07
2024-04-08T09:23:37.846Z,38.96
2024-04-08T09:27:06.700Z,38.27
2024-04-08T09:30:14.039Z,37.41
2024-04-08T09:33:23.052Z,36.52
2024-04-08T09:36:10.895Z,36.35
2024-04-08T09:39:02.209Z,36.27
2024-04-08T09:42:01.342Z,36.01
2024-04-08T09:44:49.815Z,35.20
2024-04-08T09:48:27.643Z,34.92
2024-04-08T09:51:47.700Z,34.56
2024-04-08T09:54:58.289Z,34.17
2024-04-08T09:57:38.805Z,33.57
2024-04-08T10:01:06.682Z,33.25
2024-04-08T10:03:54.593Z,32.52
2024-04-08T10:07:18.938Z,32.25
2024-04-08T10:10:05.338Z,32.12
2024-04-08T10:12:45.439Z,31.36
2024-04-08T10:15:26.969Z,31.39
2024-04-08T10:18:04.789Z,31.44
2024-04-08T10:21:12.401Z,31.42
2024-04-08T10:24:01.313Z,30.80
2024-04-08T10:27:15.612Z,30.16
2024-04-08T10:30:28.826Z,30.39
2024-04-08T10:33:30.797Z,30.01
2024-04-08T10:36:43.337Z,29.72
2024-04-08T10:39:27.962Z,29.39
2024-04-08T10:42:31.554Z,29.07
2024-04-08T10:45:26.606Z,29.10
2024-04-08T10:48:28.020Z,28.89
2024-04-08T10:51:37.617Z,28.18
2024-04-08T10:54:39.107Z,28.19
2024-04-08T10:58:12.510Z,27.92
2024-04-08T11:01:30.374Z,27.33
2024-04-08T11:04:31.577Z,27.27
2024-04-08T11:07:55.432Z,27.19
2024-04-08T11:10:44.209Z,26.74
2024-04-08T11:13:43.316Z,26.20
2024-04-08T11:16:18.843Z,26.50
2024-04-08T11:19:07.611Z,26.05
2024-04-08T11:22:14.227Z,26.37
2024-04-08T11:24:52.226Z,26.21
2024-04-08T11:27:39.521Z,26.17
2024-04-08T11:30:20.111Z,25.86
2024-04-08T11:33:32.380Z,25.48
2024-04-08T11:36:33.968Z,25.17
2024-04-08T11:39:50.507Z,25.04
2024-04-08T11:42:51.951Z,24.61
2024-04-08T11:45:46.000Z,24.59
2024-04-08T11:49:07.354Z,24.63
2024-04-08T11:51:43.624Z,24.89
2024-04-08T11:55:09.205Z,24.57
2024-04-08T11:57:57.244Z,23.93
2024-04-08T12:01:20.362Z,24.18
2024-04-08T12:04:12.047Z,25.19
2024-04-08T12:07:26.947Z,25.37
2024-04-08T12:10:10.647Z,24.75
2024-04-08T12:12:46.867Z,24.65
2024-04-08T12:16:05.419Z,25.45
2024-04-08T12:18:55.503Z,24.98
2024-04-08T12:21:52.915Z,24.98
2024-04-08T12:24:45.014Z,24.09
2024-04-08T12:27:44.073Z,24.25
2024-04-08T12:30:17.893Z,23.98
2024-04-08T12:32:53.964Z,23.82
2024-04-08T12:35:38.862Z,23.57
2024-04-08T12:38:24.090Z,23.83
2024-04-08T12:40:53.136Z,24.00
2024-04-08T12:43:24.103Z,24.19
2024-04-08T12:46:18.241Z,25.31
2024-04-08T12:49:16.219Z,25.77
2024-04-08T12:51:51.472Z,24.14
2024-04-08T12:54:32.814Z,24.60
2024-04-08T12:57:15.759Z,24.59
2024-04-08T13:00:35.583Z,24.59
2024-04-08T13:03:23.567Z,24.74
2024-04-08T13:06:33.342Z,24.83
2024-04-08T13:09:16.486Z,24.34
2024-04-08T13:11:47.292Z,24.58
2024-04-08T13:14:21.793Z,24.44
2024-04-08T13:17:04.256Z,24.82
2024-04-08T13:19:47.569Z,25.58
2024-04-08T13:22:31.359Z,25.44
2024-04-08T13:25:07.630Z,25.37
2024-04-08T13:27:58.299Z,25.16
2024-04-08T13:30:49.139Z,25.16
2024-04-08T13:33:38.677Z,25.04
2024-04-08T13:36:27.568Z,24.71
2024-04-08T13:39:09.424Z,25.16
2024-04-08T13:41:45.394Z,25.63
2024-04-08T13:44:29.735Z,26.01
2024-04-08T13:47:08.348Z,26.09
2024-04-08T13:49:45.933Z,25.79
2024-04-08T13:52:18.841Z,25.59
2024-04-08T13:54:57.408Z,25.57
2024-04-08T13:57:31.226Z,25.65
2024-04-08T14:00:24.663Z,25.80
2024-04-08T14:03:07.676Z,26.36
2024-04-08T14:06:01.115Z,26.45
2024-04-08T14:08:51.836Z,26.74
2024-04-08T14:12:01.749Z,27.20
2024-04-08T14:14:52.704Z,27.27
2024-04-08T14:17:39.310Z,27.27
2024-04-08T14:20:23.854Z,27.59
2024-04-08T14:23:03.653Z,27.70
2024-04-08T14:25:55.040Z,27.45
2024-04-08T14:28:31.822Z,27.98
2024-04-08T14:31:27.684Z,28.28
2024-04-08T14:34:30.600Z,28.20
2024-04-08T14:37:42.408Z,28.22
2024-04-08T14:40:43.620Z,28.29
2024-04-08T14:44:03.982Z,28.29
2024-04-08T14:46:59.168Z,28.73
2024-04-08T14:49:40.019Z,29.35
2024-04-08T14:52:20.957Z,29.56
2024-04-08T14:55:19.894Z,29.58
2024-04-08T14:58:12.700Z,29.85
2024-04-08T15:01:18.292Z,30.09
2024-04-08T15:04:12.356Z,29.98
2024-04-08T15:07:16.556Z,30.21
2024-04-08T15:10:07.750Z,30.61
2024-04-08T15:12:49.949Z,30.40
2024-04-08T15:15:39.241Z,30.88
2024-04-08T15:18:46.507Z,30.82
2024-04-08T15:21:58.270Z,31.46
2024-04-08T15:25:10.610Z,31.44
2024-04-08T15:28:08.910Z,31.46
2024-04-08T15:31:43.383Z,31.50
2024-04-08T15:34:36.868Z,31.97
2024-04-08T15:38:01.744Z,33.18
2024-04-08T15:41:03.956Z,33.54
2024-04-08T15:43:40.342Z,33.41
2024-04-08T15:46:43.768Z,33.45
2024-04-08T15:49:44.094Z,33.27
2024-04-08T15:52:57.688Z,33.17
2024-04-08T15:55:59.991Z,34.10
2024-04-08T15:58:44.446Z,34.28
2024-04-08T16:01:23.551Z,34.63
2024-04-08T16:04:03.979Z,34.78
2024-04-08T16:07:23.256Z,35.13
2024-04-08T16:10:19.792Z,35.38
2024-04-08T16:13:10.648Z,35.31
2024-04-08T16:15:56.262Z,35.60
2024-04-08T16:18:53.385Z,35.80
2024-04-08T16:22:21.174Z,36.16
2024-04-08T16:25:55.728Z,36.61
2024-04-08T16:29:37.606Z,37.09
2024-04-08T16:33:01.604Z,37.45
2024-04-08T16:35:46.076Z,37.76
2024-04-08T16:38:41.438Z,37.97
2024-04-08T16:41:53.646Z,38.04
2024-04-08T16:44:48.117Z,38.14
2024-04-08T16:47:39.898Z,38.30
2024-04-08T16:50:25.949Z,38.46
2024-04-08T16:52:57.282Z,38.59
2024-04-08T16:56:09.834Z,38.92
2024-04-08T16:59:17.514Z,38.92
2024-04-08T17:02:00.654Z,38.99
2024-04-08T17:05:03.339Z,39.19
2024-04-08T17:07:58.213Z,39.62
2024-04-08T17:11:01.757Z,40.28
2024-04-08T17:14:14.805Z,40.85
2024-04-08T17:17:29.093Z,41.43
2024-04-08T17:20:46.328Z,42.17
2024-04-08T17:24:07.919Z,42.58
2024-04-08T17:27:18.743Z,42.98
2024-04-08T17:30:19.912Z,43.19
2024-04-08T17:33:24.787Z,43.28
2024-04-08T17:35:54.567Z,43.21
2024-04-08T17:38:50.062Z,43.32
2024-04-08T17:41:38.624Z,43.50
2024-04-08T17:44:25.093Z,44.67
2024-04-08T17:47:26.271Z,46.31
2024-04-08T17:50:28.761Z,47.01
2024-04-08T17:53:38.899Z,47.56
2024-04-08T17:56:58.149Z,48.00
2024-04-08T18:00:05.132Z,48.65
2024-04-08T18:03:08.946Z,48.73
2024-04-08T18:06:28.545Z,49.07
2024-04-08T18:09:32.672Z,49.61
2024-04-08T18:12:39.879Z,50.12
2024-04-08T18:15:56.090Z,51.06
2024-04-08T18:18:58.831Z,51.76
2024-04-08T18:22:03.447Z,52.32
2024-04-08T18:25:38.242Z,52.65
2024-04-08T18:28:41.319Z,53.03
2024-04-08T18:31:24.356Z,53.38
2024-04-08T18:34:18.925Z,53.54
2024-04-08T18:37:14.322Z,54.08
2024-04-08T18:40:37.444Z,54.78
2024-04-08T18:43:42.745Z,55.46
2024-04-08T18:47:18.949Z,56.17
2024-04-08T18:50:53.634Z,56.72
2024-04-08T18:54:41.530Z,57.45
2024-04-08T18:58:05.852Z,58.06
2024-04-08T19:01:44.703Z,58.78
2024-04-08T19:05:23.891Z,59.66
2024-04-08T19:08:52.515Z,60.25
2024-04-08T19:12:06.114Z,61.27
2024-04-08T19:15:30.912Z,61.46
2024-04-08T19:19:15.429Z,61.89
2024-04-08T19:22:59.044Z,62.46
2024-04-08T19:26:24.399Z,62.86
2024-04-08T19:29:54.862Z,62.90
2024-04-08T19:33:34.980Z,62.78
2024-04-08T19:36:23.539Z,63.08
2024-04-08T19:39:55.664Z,63.38
2024-04-08T19:43:41.926Z,63.83
2024-04-08T19:47:26.025Z,64.44
2024-04-08T19:50:51.477Z,65.04
2024-04-08T19:54:22.080Z,65.86
2024-04-08T19:57:20.021Z,66.58
2024-04-08T20:00:43.405Z,66.96
2024-04-08T20:04:22.973Z,67.33
2024-04-08T20:08:12.864Z,67.78
2024-04-08T20:11:00.090Z,68.10
2024-04-08T20:14:16.711Z,68.35
2024-04-08T20:18:18.668Z,68.37
2024-04-08T20:21:48.687Z,68.79
2024-04-08T20:25:06.836Z,69.19
2024-04-08T20:28:14.939Z,69.65
2024-04-08T20:31:45.412Z,69.99
2024-04-08T20:35:26.573Z,71.01
2024-04-08T20:38:54.076Z,71.74
2024-04-08T20:42:36.071Z,72.09
2024-04-08T20:46:07.794Z,72.26
2024-04-08T20:49:52.030Z,72.43
2024-04-08T20:52:51.423Z,72.94
2024-04-08T21:00:45.541Z,73.87
2024-04-08T21:04:34.832Z,74.08
2024-04-08T21:08:14.919Z,73.73
2024-04-08T21:11:38.024Z,74.22
2024-04-08T21:14:55.838Z,74.73
2024-04-08T21:18:56.885Z,74.97
2024-04-08T21:22:38.595Z,75.66
2024-04-08T21:26:31.498Z,76.06
2024-04-08T21:30:02.603Z,76.49
2024-04-08T21:33:17.932Z,76.86
2024-04-08T21:37:06.911Z,77.31
2024-04-08T21:40:31.205Z,78.12
2024-04-08T21:43:54.437Z,78.48
2024-04-08T21:47:21.881Z,78.73
2024-04-08T21:50:35.408Z,79.12
2024-04-08T21:53:44.724Z,79.09
2024-04-08T21:57:07.940Z,78.90
2024-04-08T22:00:29.489Z,79.15
2024-04-08T22:03:42.187Z,79.66
2024-04-08T22:07:02.536Z,80.41
2024-04-08T22:10:33.554Z,80.69
2024-04-08T22:13:53.954Z,81.70
2024-04-08T22:17:28.458Z,82.24
2024-04-08T22:20:34.256Z,82.58
2024-04-08T22:24:14.717Z,82.67
2024-04-08T22:27:39.025Z,83.06
2024-04-08T22:31:19.139Z,83.70
2024-04-08T22:35:18.533Z,84.20
2024-04-08T22:38:41.539Z,84.27
2024-04-08T22:41:57.226Z,84.30
2024-04-08T22:45:31.533Z,84.13
2024-04-08T22:49:10.259Z,84.41
2024-04-08T22:52:33.658Z,84.77
2024-04-08T22:55:46.556Z,84.83
2024-04-08T22:59:05.957Z,84.61
2024-04-08T23:02:50.064Z,84.33
2024-04-08T23:06:27.990Z,84.15
2024-04-08T23:10:05.363Z,83.94
2024-04-08T23:13:47.331Z,83.89
2024-04-08T23:17:25.396Z,84.21
2024-04-08T23:21:15.581Z,83.92
2024-04-08T23:25:04.373Z,84.31
2024-04-08T23:29:05.806Z,84.88
2024-04-08T23:32:40.098Z,86.12
2024-04-08T23:36:29.006Z,86.46
2024-04-08T23:39:39.098Z,87.23
2024-04-08T23:43:10.477Z,87.64
2024-04-08T23:46:59.446Z,87.95
2024-04-08T23:50:38.639Z,88.13
2024-04-08T23:53:58.319Z,88.12
2024-04-08T23:57:34.749Z,88.41
